Weather History for Elbow Lake, MN

Change the Weather History Date:

Saturday, March 9, 2013

  Actual Average (KFFM) Record (KFFM)
Temperature  
Mean Temperature 28 °F -  
Max Temperature 32 °F 33 °F 51 °F (2004)
Min Temperature 23 °F 14 °F -20 °F (1951)
Degree Days  
Heating Degree Days 37    
Moisture  
Dew Point 30 °F    
Average Humidity 98    
Maximum Humidity 100    
Minimum Humidity 80    
Precipitation  
Precipitation 0.32 in - - ()
Sea Level Pressure  
Sea Level Pressure 29.82 in    
Wind  
Wind Speed 7 mph (NNE)    
Max Wind Speed 20 mph    
Max Gust Speed 26 mph    
Visibility 2 miles    
Events Fog , Rain , Snow    
Averages and records for this station are not official NWS values.
T = Trace of Precipitation, MM = Missing Value Source: NWS Daily Summary

Daily Weather History Graph

Daily Weather History Graph

Search for Another Location

Airport:

Trip Planner

Search our weather history database for the weather conditions in past years. The results will help you decide how hot, cold, wet, or windy it might be!

Date:

Astronomy

Mar. 09, 2013 Rise Set
Actual Time 6:47 AM CST 6:22 PM CST
Civil Twilight 6:17 AM CST 6:51 PM CST
Nautical Twilight 5:43 AM CST 7:26 PM CST
Astronomical Twilight 5:08 AM CST 8:01 PM CST
Moon 5:17 AM CST (3/9) 4:21 PM CST (3/9)
Length of Visible Light 12h 34m
Length of Day
11h 34m
Waning Crescent, 5% of the Moon is Illuminated
Mar 9
Waning Crescent
Mar 11
New
Mar 19
First Quarter
Mar 27
Full
Apr 2
Last Quarter

Hourly Weather History & Observations

Time (CST) Temp. Windchill Dew Point Humidity Pressure Visibility Wind Dir Wind Speed Gust Speed Precip Events Conditions
12:15 AM 32.0 °F 26.4 °F 32.0 °F 100% 29.98 in 2.5 mi SE 5.8 mph - 0.04 in Rain Rain
12:35 AM 32.0 °F 24.8 °F 32.0 °F 100% 29.98 in 2.0 mi SE 8.1 mph - 0.07 in Rain Light Rain
12:55 AM 32.0 °F 26.4 °F 32.0 °F 100% 29.96 in 2.5 mi SE 5.8 mph - 0.08 in Rain Light Rain
1:15 AM 32.0 °F 25.6 °F 32.0 °F 100% 29.96 in 2.5 mi SE 6.9 mph - 0.02 in   Overcast
1:35 AM 32.0 °F 24.8 °F 32.0 °F 100% 29.94 in 3.0 mi SE 8.1 mph - 0.03 in Rain Light Rain
1:55 AM 32.0 °F 26.4 °F 32.0 °F 100% 29.93 in 3.0 mi SE 5.8 mph - 0.03 in   Light Drizzle
2:15 AM 32.0 °F 26.4 °F 32.0 °F 100% 29.92 in 3.0 mi SE 5.8 mph - 0.01 in Snow Light Snow
2:35 AM 32.0 °F 26.4 °F 32.0 °F 100% 29.91 in 2.5 mi SE 5.8 mph - 0.01 in Snow Light Snow
2:55 AM 32.0 °F 26.4 °F 32.0 °F 100% 29.89 in 2.5 mi SE 5.8 mph - 0.02 in Snow Light Snow
3:15 AM 32.0 °F 27.5 °F 32.0 °F 100% 29.88 in 2.5 mi SE 4.6 mph - N/A   Overcast
3:35 AM 32.0 °F 27.5 °F 32.0 °F 100% 29.87 in 2.5 mi SE 4.6 mph - N/A Snow Light Snow
3:55 AM 32.0 °F 27.5 °F 32.0 °F 100% 29.86 in 2.0 mi SE 4.6 mph - N/A   Overcast
4:15 AM 32.0 °F 27.5 °F 32.0 °F 100% 29.85 in 1.8 mi SE 4.6 mph - N/A   Light Drizzle
4:35 AM 32.0 °F 26.4 °F 32.0 °F 100% 29.85 in 2.0 mi SE 5.8 mph - N/A   Overcast
4:55 AM 32.0 °F 27.5 °F 32.0 °F 100% 29.85 in 1.8 mi SE 4.6 mph - N/A   Overcast
5:15 AM 32.0 °F 27.5 °F 32.0 °F 100% 29.85 in 1.8 mi SE 4.6 mph - N/A Rain Light Rain
5:35 AM 32.0 °F 27.5 °F 32.0 °F 100% 29.84 in 2.0 mi SE 4.6 mph - N/A   Light Drizzle
5:55 AM 32.0 °F 26.4 °F 32.0 °F 100% 29.84 in 2.5 mi SE 5.8 mph - N/A   Overcast
6:15 AM 32.0 °F 28.7 °F 32.0 °F 100% 29.84 in 2.5 mi SE 3.5 mph - N/A   Overcast
6:35 AM 32.0 °F 27.5 °F 32.0 °F 100% 29.83 in 3.0 mi SE 4.6 mph - N/A   Overcast
6:55 AM 32.0 °F 28.7 °F 32.0 °F 100% 29.83 in 2.5 mi SE 3.5 mph - N/A   Overcast
7:15 AM 32.0 °F 28.7 °F 32.0 °F 100% 29.83 in 1.5 mi SE 3.5 mph - N/A   Overcast
7:35 AM 32.0 °F - 32.0 °F 100% 29.81 in 1.2 mi Calm Calm - N/A   Overcast
7:55 AM 32.0 °F - 32.0 °F 100% 29.81 in 1.2 mi Calm Calm - N/A   Overcast
8:15 AM 32.0 °F - 32.0 °F 100% 29.81 in 0.8 mi Calm Calm - N/A   Overcast
8:35 AM 32.0 °F - 32.0 °F 100% 29.80 in 0.8 mi Calm Calm - N/A   Overcast
8:55 AM 32.0 °F - 32.0 °F 100% 29.79 in 0.8 mi Calm Calm - N/A   Overcast
9:15 AM 32.0 °F - 32.0 °F 100% 29.79 in 0.8 mi Calm Calm - N/A   Overcast
9:35 AM 32.0 °F - 32.0 °F 100% 29.78 in 0.8 mi Calm Calm - N/A   Overcast
9:55 AM 32.0 °F - 32.0 °F 100% 29.77 in 0.5 mi Calm Calm - N/A Fog Fog
10:15 AM 32.0 °F 28.7 °F 32.0 °F 100% 29.77 in 0.8 mi NE 3.5 mph - N/A   Overcast
10:35 AM 32.0 °F 27.5 °F 32.0 °F 100% 29.77 in 0.8 mi NE 4.6 mph - N/A   Overcast
10:55 AM 32.0 °F 26.4 °F 32.0 °F 100% 29.77 in 0.5 mi East 5.8 mph - N/A Fog Fog
11:15 AM 32.0 °F 27.5 °F 32.0 °F 100% 29.77 in 0.5 mi East 4.6 mph - N/A Fog Fog
11:35 AM 32.0 °F 27.5 °F 32.0 °F 100% 29.76 in 0.5 mi ENE 4.6 mph - N/A Fog Fog
11:55 AM 32.0 °F 27.5 °F 32.0 °F 100% 29.75 in 0.5 mi NE 4.6 mph - N/A Snow Light Snow
12:15 PM 32.0 °F 27.5 °F 32.0 °F 100% 29.75 in 0.8 mi NE 4.6 mph - N/A Snow Light Snow
12:35 PM 32.0 °F 27.5 °F 32.0 °F 100% 29.75 in 0.8 mi NE 4.6 mph - 0.01 in Snow Light Snow
12:55 PM 32.0 °F 28.7 °F 32.0 °F 100% 29.74 in 0.8 mi NNE 3.5 mph - 0.02 in Snow Light Snow
1:15 PM 32.0 °F 27.5 °F 32.0 °F 100% 29.74 in 0.5 mi NNE 4.6 mph - 0.01 in Snow Light Snow
1:35 PM 32.0 °F 27.5 °F 32.0 °F 100% 29.73 in 0.5 mi NNE 4.6 mph - 0.03 in Snow Light Snow
1:55 PM 32.0 °F 27.5 °F 32.0 °F 100% 29.72 in 0.2 mi North 4.6 mph - 0.05 in Snow Snow
2:15 PM 32.0 °F 27.5 °F 32.0 °F 100% 29.71 in 0.2 mi North 4.6 mph - 0.02 in Snow Snow
2:35 PM 32.0 °F 26.4 °F 32.0 °F 100% 29.71 in 0.2 mi North 5.8 mph - 0.05 in Snow Snow
2:55 PM 32.0 °F 27.5 °F 32.0 °F 100% 29.72 in 0.5 mi North 4.6 mph - 0.08 in Snow Snow
3:15 PM 32.0 °F 26.4 °F 32.0 °F 100% 29.72 in 0.5 mi NNW 5.8 mph - 0.02 in Snow Snow
3:35 PM 32.0 °F 24.8 °F 32.0 °F 100% 29.73 in 0.5 mi NNW 8.1 mph - 0.04 in Snow Snow
3:55 PM 32.0 °F 24.2 °F 32.0 °F 100% 29.73 in 0.8 mi NNW 9.2 mph - 0.04 in Snow Light Snow
4:15 PM 32.0 °F 21.2 °F 32.0 °F 100% 29.73 in 0.8 mi NNW 16.1 mph - N/A Snow Light Snow
4:35 PM 32.0 °F 22.1 °F 32.0 °F 100% 29.72 in 0.5 mi NNW 13.8 mph 17.3 mph N/A Snow Light Snow
4:55 PM 32.0 °F 21.6 °F 32.0 °F 100% 29.73 in 0.5 mi NNW 15.0 mph - N/A Snow Light Snow
5:15 PM 32.0 °F 22.5 °F 30.2 °F 93% 29.76 in 0.8 mi NNW 12.7 mph 17.3 mph N/A Snow Light Snow
5:35 PM 30.2 °F 18.9 °F 30.2 °F 100% 29.76 in 0.8 mi NNW 16.1 mph - N/A Snow Light Snow
5:55 PM 30.2 °F 19.8 °F 30.2 °F 100% 29.77 in 0.8 mi NNW 13.8 mph - N/A Snow Light Snow
6:15 PM 30.2 °F 19.3 °F 28.4 °F 93% 29.78 in 0.8 mi NNW 15.0 mph - N/A Snow Light Snow
6:35 PM 28.4 °F 16.6 °F 28.4 °F 100% 29.79 in 0.5 mi NNW 16.1 mph - N/A Snow Snow
6:55 PM 28.4 °F 17.0 °F 28.4 °F 100% 29.79 in 1.2 mi NNW 15.0 mph 19.6 mph N/A Snow Light Snow
7:15 PM 28.4 °F 17.0 °F 28.4 °F 100% 29.80 in 1.8 mi NNW 15.0 mph - N/A Snow Light Snow
7:35 PM 28.4 °F 17.0 °F 28.4 °F 100% 29.81 in 3.0 mi NNW 15.0 mph - N/A Snow Light Snow
7:55 PM 28.4 °F 18.0 °F 26.6 °F 93% 29.83 in 3.0 mi NNW 12.7 mph - N/A Snow Light Snow
8:15 PM 28.4 °F 17.5 °F 28.4 °F 100% 29.83 in 3.0 mi NNW 13.8 mph - N/A Snow Light Snow
8:35 PM 28.4 °F 16.6 °F 28.4 °F 100% 29.83 in 3.0 mi NNW 16.1 mph - N/A Snow Light Snow
8:55 PM 28.4 °F 16.2 °F 26.6 °F 93% 29.84 in 3.0 mi NNW 17.3 mph 23.0 mph N/A Snow Light Snow
9:15 PM 26.6 °F 13.1 °F 24.8 °F 93% 29.85 in 4.0 mi NNW 19.6 mph - N/A   Overcast
9:35 PM 26.6 °F 13.1 °F 23.0 °F 86% 29.86 in 7.0 mi NNW 19.6 mph 26.5 mph N/A   Overcast
9:55 PM 26.6 °F 13.4 °F 21.2 °F 80% 29.87 in 10.0 mi NNW 18.4 mph - N/A   Overcast
10:15 PM 26.6 °F 13.4 °F 21.2 °F 80% 29.87 in 10.0 mi NNW 18.4 mph - N/A   Overcast
10:35 PM 26.6 °F 14.3 °F 23.0 °F 86% 29.88 in 10.0 mi NNW 16.1 mph 23.0 mph N/A   Overcast
10:55 PM 26.6 °F 14.3 °F 23.0 °F 86% 29.89 in 10.0 mi NNW 16.1 mph - N/A   Overcast
11:15 PM 26.6 °F 14.3 °F 23.0 °F 86% 29.90 in 10.0 mi NNW 16.1 mph - N/A   Overcast
11:35 PM 24.8 °F 11.5 °F 23.0 °F 93% 29.91 in 7.0 mi NNW 17.3 mph 21.9 mph N/A   Overcast
11:55 PM 23.0 °F 9.6 °F 21.2 °F 93% 29.91 in 10.0 mi NNW 16.1 mph - N/A   Overcast